sensor_id;sensor_type;location;lat;lon;timestamp;P1;durP1;ratioP1;P2;durP2;ratioP2
11960;SDS011;6040;49.358;11.140;2023-08-30T00:01:33;2.30;;;2.10;;
11960;SDS011;6040;49.358;11.140;2023-08-30T00:04:00;2.37;;;2.17;;
11960;SDS011;6040;49.358;11.140;2023-08-30T00:06:27;2.30;;;2.10;;
11960;SDS011;6040;49.358;11.140;2023-08-30T00:08:53;3.67;;;2.10;;
11960;SDS011;6040;49.358;11.140;2023-08-30T00:11:21;3.57;;;2.13;;
11960;SDS011;6040;49.358;11.140;2023-08-30T00:13:48;12.93;;;2.63;;
11960;SDS011;6040;49.358;11.140;2023-08-30T00:16:16;6.73;;;2.60;;
11960;SDS011;6040;49.358;11.140;2023-08-30T00:18:43;4.30;;;2.30;;
11960;SDS011;6040;49.358;11.140;2023-08-30T00:21:10;5.13;;;2.33;;
11960;SDS011;6040;49.358;11.140;2023-08-30T00:23:37;4.30;;;2.63;;
11960;SDS011;6040;49.358;11.140;2023-08-30T00:26:04;4.10;;;2.60;;
11960;SDS011;6040;49.358;11.140;2023-08-30T00:28:31;2.67;;;2.30;;
11960;SDS011;6040;49.358;11.140;2023-08-30T00:30:57;3.83;;;2.50;;
11960;SDS011;6040;49.358;11.140;2023-08-30T00:33:25;4.37;;;2.10;;
11960;SDS011;6040;49.358;11.140;2023-08-30T00:35:55;3.73;;;2.07;;
11960;SDS011;6040;49.358;11.140;2023-08-30T00:38:23;2.20;;;2.00;;
11960;SDS011;6040;49.358;11.140;2023-08-30T00:40:52;2.43;;;2.23;;
11960;SDS011;6040;49.358;11.140;2023-08-30T00:43:18;2.97;;;2.30;;
11960;SDS011;6040;49.358;11.140;2023-08-30T00:45:45;3.57;;;2.67;;
11960;SDS011;6040;49.358;11.140;2023-08-30T00:48:13;2.60;;;2.40;;
11960;SDS011;6040;49.358;11.140;2023-08-30T00:50:42;2.60;;;2.40;;
11960;SDS011;6040;49.358;11.140;2023-08-30T00:53:09;3.40;;;2.40;;
11960;SDS011;6040;49.358;11.140;2023-08-30T00:55:37;4.63;;;2.23;;
11960;SDS011;6040;49.358;11.140;2023-08-30T00:58:05;4.80;;;2.37;;
11960;SDS011;6040;49.358;11.140;2023-08-30T01:00:32;2.63;;;2.40;;
11960;SDS011;6040;49.358;11.140;2023-08-30T01:02:59;3.17;;;2.20;;
11960;SDS011;6040;49.358;11.140;2023-08-30T01:05:26;3.50;;;2.40;;
11960;SDS011;6040;49.358;11.140;2023-08-30T01:07:54;2.67;;;2.17;;
11960;SDS011;6040;49.358;11.140;2023-08-30T01:10:23;2.63;;;2.23;;
11960;SDS011;6040;49.358;11.140;2023-08-30T01:12:55;2.50;;;2.30;;
11960;SDS011;6040;49.358;11.140;2023-08-30T01:15:29;5.20;;;2.50;;
11960;SDS011;6040;49.358;11.140;2023-08-30T01:17:57;2.50;;;2.30;;
11960;SDS011;6040;49.358;11.140;2023-08-30T01:20:25;3.27;;;2.10;;
11960;SDS011;6040;49.358;11.140;2023-08-30T01:22:55;4.13;;;2.00;;
11960;SDS011;6040;49.358;11.140;2023-08-30T01:25:29;5.57;;;2.60;;
11960;SDS011;6040;49.358;11.140;2023-08-30T01:28:03;4.13;;;2.50;;
11960;SDS011;6040;49.358;11.140;2023-08-30T01:30:32;5.33;;;1.90;;
11960;SDS011;6040;49.358;11.140;2023-08-30T01:33:02;5.13;;;2.90;;
11960;SDS011;6040;49.358;11.140;2023-08-30T01:35:30;2.73;;;2.30;;
11960;SDS011;6040;49.358;11.140;2023-08-30T01:38:01;4.80;;;2.77;;
11960;SDS011;6040;49.358;11.140;2023-08-30T01:40:30;4.87;;;2.90;;
11960;SDS011;6040;49.358;11.140;2023-08-30T01:43:08;3.37;;;2.60;;
11960;SDS011;6040;49.358;11.140;2023-08-30T01:45:38;2.93;;;2.67;;
11960;SDS011;6040;49.358;11.140;2023-08-30T01:48:07;3.87;;;2.80;;
11960;SDS011;6040;49.358;11.140;2023-08-30T01:50:35;2.93;;;2.40;;
11960;SDS011;6040;49.358;11.140;2023-08-30T01:53:03;6.47;;;2.53;;
11960;SDS011;6040;49.358;11.140;2023-08-30T01:55:31;2.67;;;2.47;;
11960;SDS011;6040;49.358;11.140;2023-08-30T01:57:58;2.90;;;2.63;;
11960;SDS011;6040;49.358;11.140;2023-08-30T02:00:27;2.70;;;2.50;;
11960;SDS011;6040;49.358;11.140;2023-08-30T02:02:53;2.50;;;2.30;;
11960;SDS011;6040;49.358;11.140;2023-08-30T02:05:20;3.07;;;2.40;;
11960;SDS011;6040;49.358;11.140;2023-08-30T02:07:48;5.23;;;2.43;;
11960;SDS011;6040;49.358;11.140;2023-08-30T02:10:21;2.73;;;2.53;;
11960;SDS011;6040;49.358;11.140;2023-08-30T02:12:52;2.70;;;2.50;;
11960;SDS011;6040;49.358;11.140;2023-08-30T02:15:20;2.80;;;2.43;;
11960;SDS011;6040;49.358;11.140;2023-08-30T02:17:50;5.03;;;2.50;;
11960;SDS011;6040;49.358;11.140;2023-08-30T02:20:17;3.63;;;2.37;;
11960;SDS011;6040;49.358;11.140;2023-08-30T02:22:44;2.53;;;2.33;;
11960;SDS011;6040;49.358;11.140;2023-08-30T02:25:11;3.23;;;2.60;;
11960;SDS011;6040;49.358;11.140;2023-08-30T02:27:38;2.40;;;2.30;;
11960;SDS011;6040;49.358;11.140;2023-08-30T02:30:05;4.87;;;2.70;;
11960;SDS011;6040;49.358;11.140;2023-08-30T02:32:33;3.00;;;2.60;;
11960;SDS011;6040;49.358;11.140;2023-08-30T02:35:02;4.10;;;2.50;;
11960;SDS011;6040;49.358;11.140;2023-08-30T02:37:29;2.53;;;2.30;;
11960;SDS011;6040;49.358;11.140;2023-08-30T02:39:56;7.70;;;2.37;;
11960;SDS011;6040;49.358;11.140;2023-08-30T02:42:22;4.23;;;2.30;;
11960;SDS011;6040;49.358;11.140;2023-08-30T02:44:51;3.53;;;2.17;;
11960;SDS011;6040;49.358;11.140;2023-08-30T02:47:17;5.83;;;2.43;;
11960;SDS011;6040;49.358;11.140;2023-08-30T02:49:44;4.97;;;2.50;;
11960;SDS011;6040;49.358;11.140;2023-08-30T02:52:12;3.43;;;2.43;;
11960;SDS011;6040;49.358;11.140;2023-08-30T02:54:39;4.67;;;2.23;;
11960;SDS011;6040;49.358;11.140;2023-08-30T02:57:06;5.17;;;2.80;;
11960;SDS011;6040;49.358;11.140;2023-08-30T02:59:33;7.83;;;2.67;;
11960;SDS011;6040;49.358;11.140;2023-08-30T03:01:59;2.70;;;2.50;;
11960;SDS011;6040;49.358;11.140;2023-08-30T03:04:27;7.77;;;3.03;;
11960;SDS011;6040;49.358;11.140;2023-08-30T03:06:53;3.80;;;2.63;;
11960;SDS011;6040;49.358;11.140;2023-08-30T03:09:22;3.97;;;2.70;;
11960;SDS011;6040;49.358;11.140;2023-08-30T03:11:48;2.80;;;2.60;;
11960;SDS011;6040;49.358;11.140;2023-08-30T03:14:15;3.43;;;2.43;;
11960;SDS011;6040;49.358;11.140;2023-08-30T03:16:42;4.53;;;2.67;;
11960;SDS011;6040;49.358;11.140;2023-08-30T03:19:11;4.07;;;2.73;;
11960;SDS011;6040;49.358;11.140;2023-08-30T03:21:38;3.57;;;2.50;;
11960;SDS011;6040;49.358;11.140;2023-08-30T03:24:05;3.50;;;2.77;;
11960;SDS011;6040;49.358;11.140;2023-08-30T03:26:33;7.00;;;2.90;;
11960;SDS011;6040;49.358;11.140;2023-08-30T03:29:00;5.80;;;2.90;;
11960;SDS011;6040;49.358;11.140;2023-08-30T03:31:28;3.20;;;2.90;;
11960;SDS011;6040;49.358;11.140;2023-08-30T03:33:54;4.60;;;2.90;;
11960;SDS011;6040;49.358;11.140;2023-08-30T03:36:21;3.13;;;2.90;;
11960;SDS011;6040;49.358;11.140;2023-08-30T03:38:48;6.53;;;3.10;;
11960;SDS011;6040;49.358;11.140;2023-08-30T03:41:15;3.60;;;3.10;;
11960;SDS011;6040;49.358;11.140;2023-08-30T03:43:43;5.43;;;3.33;;
11960;SDS011;6040;49.358;11.140;2023-08-30T03:46:10;7.67;;;3.00;;
11960;SDS011;6040;49.358;11.140;2023-08-30T03:48:37;4.03;;;2.97;;
11960;SDS011;6040;49.358;11.140;2023-08-30T03:51:04;4.17;;;2.87;;
11960;SDS011;6040;49.358;11.140;2023-08-30T03:53:30;4.60;;;3.20;;
11960;SDS011;6040;49.358;11.140;2023-08-30T03:55:57;7.13;;;2.87;;
11960;SDS011;6040;49.358;11.140;2023-08-30T03:58:24;5.10;;;2.60;;
11960;SDS011;6040;49.358;11.140;2023-08-30T04:00:52;2.70;;;2.50;;
11960;SDS011;6040;49.358;11.140;2023-08-30T04:03:19;5.70;;;2.80;;
11960;SDS011;6040;49.358;11.140;2023-08-30T04:05:47;3.73;;;2.77;;
11960;SDS011;6040;49.358;11.140;2023-08-30T04:08:20;3.47;;;2.50;;
11960;SDS011;6040;49.358;11.140;2023-08-30T04:10:47;3.53;;;2.60;;
11960;SDS011;6040;49.358;11.140;2023-08-30T04:13:14;6.27;;;3.20;;
11960;SDS011;6040;49.358;11.140;2023-08-30T04:15:41;3.87;;;2.80;;
11960;SDS011;6040;49.358;11.140;2023-08-30T04:18:09;8.13;;;3.60;;
11960;SDS011;6040;49.358;11.140;2023-08-30T04:20:36;3.40;;;3.10;;
11960;SDS011;6040;49.358;11.140;2023-08-30T04:23:09;4.33;;;2.80;;
11960;SDS011;6040;49.358;11.140;2023-08-30T04:25:36;5.27;;;3.30;;
11960;SDS011;6040;49.358;11.140;2023-08-30T04:28:03;4.50;;;3.10;;
11960;SDS011;6040;49.358;11.140;2023-08-30T04:30:30;5.90;;;3.07;;
11960;SDS011;6040;49.358;11.140;2023-08-30T04:32:58;3.50;;;3.20;;
11960;SDS011;6040;49.358;11.140;2023-08-30T04:35:29;6.07;;;3.00;;
11960;SDS011;6040;49.358;11.140;2023-08-30T04:37:57;7.10;;;3.30;;
11960;SDS011;6040;49.358;11.140;2023-08-30T04:40:25;3.30;;;2.97;;
11960;SDS011;6040;49.358;11.140;2023-08-30T04:42:52;3.97;;;3.10;;
11960;SDS011;6040;49.358;11.140;2023-08-30T04:45:18;3.50;;;3.20;;
11960;SDS011;6040;49.358;11.140;2023-08-30T04:47:45;3.30;;;3.00;;
11960;SDS011;6040;49.358;11.140;2023-08-30T04:50:13;3.87;;;3.20;;
11960;SDS011;6040;49.358;11.140;2023-08-30T04:52:41;4.53;;;3.37;;
11960;SDS011;6040;49.358;11.140;2023-08-30T04:55:08;3.47;;;3.17;;
11960;SDS011;6040;49.358;11.140;2023-08-30T04:57:35;3.67;;;3.30;;
11960;SDS011;6040;49.358;11.140;2023-08-30T05:00:03;3.40;;;3.10;;
11960;SDS011;6040;49.358;11.140;2023-08-30T05:02:31;3.87;;;3.50;;
11960;SDS011;6040;49.358;11.140;2023-08-30T05:04:58;7.77;;;4.00;;
11960;SDS011;6040;49.358;11.140;2023-08-30T05:07:24;3.97;;;3.40;;
11960;SDS011;6040;49.358;11.140;2023-08-30T05:09:53;5.83;;;3.20;;
11960;SDS011;6040;49.358;11.140;2023-08-30T05:12:19;3.50;;;3.20;;
11960;SDS011;6040;49.358;11.140;2023-08-30T05:14:47;7.53;;;3.43;;
11960;SDS011;6040;49.358;11.140;2023-08-30T05:17:14;3.87;;;3.30;;
11960;SDS011;6040;49.358;11.140;2023-08-30T05:19:40;4.30;;;3.63;;
11960;SDS011;6040;49.358;11.140;2023-08-30T05:22:07;4.03;;;3.57;;
11960;SDS011;6040;49.358;11.140;2023-08-30T05:24:34;8.10;;;4.10;;
11960;SDS011;6040;49.358;11.140;2023-08-30T05:27:03;4.50;;;3.70;;
11960;SDS011;6040;49.358;11.140;2023-08-30T05:29:30;4.03;;;3.50;;
11960;SDS011;6040;49.358;11.140;2023-08-30T05:31:56;6.90;;;3.77;;
11960;SDS011;6040;49.358;11.140;2023-08-30T05:34:23;4.17;;;3.83;;
11960;SDS011;6040;49.358;11.140;2023-08-30T05:36:52;4.83;;;3.93;;
11960;SDS011;6040;49.358;11.140;2023-08-30T05:39:19;5.60;;;4.00;;
11960;SDS011;6040;49.358;11.140;2023-08-30T05:41:45;5.23;;;3.80;;
11960;SDS011;6040;49.358;11.140;2023-08-30T05:44:13;4.83;;;3.80;;
11960;SDS011;6040;49.358;11.140;2023-08-30T05:46:40;6.77;;;4.20;;
11960;SDS011;6040;49.358;11.140;2023-08-30T05:49:07;4.83;;;4.33;;
11960;SDS011;6040;49.358;11.140;2023-08-30T05:51:34;4.40;;;4.00;;
11960;SDS011;6040;49.358;11.140;2023-08-30T05:54:01;6.13;;;4.70;;
11960;SDS011;6040;49.358;11.140;2023-08-30T05:56:28;5.70;;;4.67;;
11960;SDS011;6040;49.358;11.140;2023-08-30T05:58:55;6.53;;;4.80;;
11960;SDS011;6040;49.358;11.140;2023-08-30T06:01:23;5.63;;;5.07;;
11960;SDS011;6040;49.358;11.140;2023-08-30T06:03:50;7.20;;;5.30;;
11960;SDS011;6040;49.358;11.140;2023-08-30T06:06:17;8.53;;;6.03;;
11960;SDS011;6040;49.358;11.140;2023-08-30T06:08:44;11.33;;;6.17;;
11960;SDS011;6040;49.358;11.140;2023-08-30T06:11:11;6.67;;;6.03;;
11960;SDS011;6040;49.358;11.140;2023-08-30T06:13:39;14.10;;;6.57;;
11960;SDS011;6040;49.358;11.140;2023-08-30T06:16:05;6.80;;;5.90;;
11960;SDS011;6040;49.358;11.140;2023-08-30T06:18:34;9.17;;;5.97;;
11960;SDS011;6040;49.358;11.140;2023-08-30T06:21:02;6.17;;;5.60;;
11960;SDS011;6040;49.358;11.140;2023-08-30T06:23:29;6.80;;;5.57;;
11960;SDS011;6040;49.358;11.140;2023-08-30T06:25:56;7.63;;;6.83;;
11960;SDS011;6040;49.358;11.140;2023-08-30T06:28:23;8.30;;;7.50;;
11960;SDS011;6040;49.358;11.140;2023-08-30T06:30:50;9.27;;;7.33;;
11960;SDS011;6040;49.358;11.140;2023-08-30T06:33:17;11.13;;;8.90;;
11960;SDS011;6040;49.358;11.140;2023-08-30T06:35:47;10.70;;;9.60;;
11960;SDS011;6040;49.358;11.140;2023-08-30T06:38:14;13.70;;;10.57;;
11960;SDS011;6040;49.358;11.140;2023-08-30T06:40:43;13.77;;;10.17;;
11960;SDS011;6040;49.358;11.140;2023-08-30T06:43:10;11.87;;;9.77;;
11960;SDS011;6040;49.358;11.140;2023-08-30T06:45:37;9.87;;;8.87;;
11960;SDS011;6040;49.358;11.140;2023-08-30T06:48:05;11.90;;;8.77;;
11960;SDS011;6040;49.358;11.140;2023-08-30T06:50:32;11.83;;;9.13;;
11960;SDS011;6040;49.358;11.140;2023-08-30T06:53:00;9.97;;;8.77;;
11960;SDS011;6040;49.358;11.140;2023-08-30T06:55:26;11.57;;;10.10;;
11960;SDS011;6040;49.358;11.140;2023-08-30T06:57:53;11.10;;;10.00;;
11960;SDS011;6040;49.358;11.140;2023-08-30T07:00:21;16.63;;;11.67;;
11960;SDS011;6040;49.358;11.140;2023-08-30T07:02:48;15.50;;;12.33;;
11960;SDS011;6040;49.358;11.140;2023-08-30T07:05:14;13.57;;;12.17;;
11960;SDS011;6040;49.358;11.140;2023-08-30T07:07:41;16.07;;;13.60;;
11960;SDS011;6040;49.358;11.140;2023-08-30T07:10:10;15.30;;;13.80;;
11960;SDS011;6040;49.358;11.140;2023-08-30T07:12:37;15.10;;;13.57;;
11960;SDS011;6040;49.358;11.140;2023-08-30T07:15:04;14.13;;;12.63;;
11960;SDS011;6040;49.358;11.140;2023-08-30T07:17:32;15.23;;;13.63;;
11960;SDS011;6040;49.358;11.140;2023-08-30T07:19:58;14.47;;;13.13;;
11960;SDS011;6040;49.358;11.140;2023-08-30T07:22:26;16.03;;;14.33;;
11960;SDS011;6040;49.358;11.140;2023-08-30T07:24:53;14.80;;;13.10;;
11960;SDS011;6040;49.358;11.140;2023-08-30T07:27:21;15.27;;;13.37;;
11960;SDS011;6040;49.358;11.140;2023-08-30T07:29:48;14.90;;;13.37;;
11960;SDS011;6040;49.358;11.140;2023-08-30T07:32:15;14.60;;;13.10;;
11960;SDS011;6040;49.358;11.140;2023-08-30T07:34:41;18.63;;;14.83;;
11960;SDS011;6040;49.358;11.140;2023-08-30T07:37:16;15.57;;;14.17;;
11960;SDS011;6040;49.358;11.140;2023-08-30T07:39:44;15.80;;;14.20;;
11960;SDS011;6040;49.358;11.140;2023-08-30T07:42:10;16.80;;;15.00;;
11960;SDS011;6040;49.358;11.140;2023-08-30T07:44:39;17.50;;;15.50;;
11960;SDS011;6040;49.358;11.140;2023-08-30T07:47:05;17.73;;;16.03;;
11960;SDS011;6040;49.358;11.140;2023-08-30T07:49:32;16.43;;;14.73;;
11960;SDS011;6040;49.358;11.140;2023-08-30T07:51:59;18.13;;;16.33;;
11960;SDS011;6040;49.358;11.140;2023-08-30T07:54:26;15.87;;;14.23;;
11960;SDS011;6040;49.358;11.140;2023-08-30T07:56:53;17.33;;;15.57;;
11960;SDS011;6040;49.358;11.140;2023-08-30T07:59:19;17.57;;;15.77;;
11960;SDS011;6040;49.358;11.140;2023-08-30T08:01:47;16.63;;;14.93;;
11960;SDS011;6040;49.358;11.140;2023-08-30T08:04:16;18.33;;;15.10;;
11960;SDS011;6040;49.358;11.140;2023-08-30T08:06:43;17.57;;;15.77;;
11960;SDS011;6040;49.358;11.140;2023-08-30T08:09:10;17.30;;;15.50;;
11960;SDS011;6040;49.358;11.140;2023-08-30T08:11:37;16.23;;;14.73;;
11960;SDS011;6040;49.358;11.140;2023-08-30T08:14:08;18.47;;;16.40;;
11960;SDS011;6040;49.358;11.140;2023-08-30T08:16:35;17.23;;;15.57;;
11960;SDS011;6040;49.358;11.140;2023-08-30T08:19:03;16.80;;;15.20;;
11960;SDS011;6040;49.358;11.140;2023-08-30T08:21:31;17.10;;;15.43;;
11960;SDS011;6040;49.358;11.140;2023-08-30T08:23:57;16.60;;;14.90;;
11960;SDS011;6040;49.358;11.140;2023-08-30T08:26:24;15.57;;;14.10;;
11960;SDS011;6040;49.358;11.140;2023-08-30T08:28:51;16.43;;;14.73;;
11960;SDS011;6040;49.358;11.140;2023-08-30T08:31:19;15.57;;;14.17;;
11960;SDS011;6040;49.358;11.140;2023-08-30T08:33:46;16.60;;;14.90;;
11960;SDS011;6040;49.358;11.140;2023-08-30T08:36:17;15.90;;;14.17;;
11960;SDS011;6040;49.358;11.140;2023-08-30T08:38:44;15.17;;;13.27;;
11960;SDS011;6040;49.358;11.140;2023-08-30T08:41:12;14.87;;;13.20;;
11960;SDS011;6040;49.358;11.140;2023-08-30T08:43:41;13.80;;;12.50;;
11960;SDS011;6040;49.358;11.140;2023-08-30T08:46:09;12.27;;;10.90;;
11960;SDS011;6040;49.358;11.140;2023-08-30T08:48:38;12.47;;;11.17;;
11960;SDS011;6040;49.358;11.140;2023-08-30T08:51:06;10.30;;;9.30;;
11960;SDS011;6040;49.358;11.140;2023-08-30T08:53:35;10.90;;;9.80;;
11960;SDS011;6040;49.358;11.140;2023-08-30T08:56:03;11.20;;;9.50;;
11960;SDS011;6040;49.358;11.140;2023-08-30T08:58:33;10.20;;;9.27;;
11960;SDS011;6040;49.358;11.140;2023-08-30T09:01:01;11.50;;;9.47;;
11960;SDS011;6040;49.358;11.140;2023-08-30T09:03:30;8.93;;;8.10;;
11960;SDS011;6040;49.358;11.140;2023-08-30T09:05:58;8.87;;;7.80;;
11960;SDS011;6040;49.358;11.140;2023-08-30T09:08:27;8.70;;;7.50;;
11960;SDS011;6040;49.358;11.140;2023-08-30T09:10:55;11.60;;;8.07;;
11960;SDS011;6040;49.358;11.140;2023-08-30T09:13:22;9.17;;;8.33;;
11960;SDS011;6040;49.358;11.140;2023-08-30T09:15:49;11.00;;;8.63;;
11960;SDS011;6040;49.358;11.140;2023-08-30T09:18:16;9.43;;;8.53;;
11960;SDS011;6040;49.358;11.140;2023-08-30T09:20:43;9.10;;;8.20;;
11960;SDS011;6040;49.358;11.140;2023-08-30T09:23:16;10.03;;;7.10;;
11960;SDS011;6040;49.358;11.140;2023-08-30T09:25:43;7.13;;;6.43;;
11960;SDS011;6040;49.358;11.140;2023-08-30T09:28:12;9.87;;;7.00;;
11960;SDS011;6040;49.358;11.140;2023-08-30T09:30:39;8.00;;;6.60;;
11960;SDS011;6040;49.358;11.140;2023-08-30T09:33:06;8.27;;;6.20;;
11960;SDS011;6040;49.358;11.140;2023-08-30T09:35:34;6.83;;;6.10;;
11960;SDS011;6040;49.358;11.140;2023-08-30T09:38:15;6.67;;;6.07;;
11960;SDS011;6040;49.358;11.140;2023-08-30T09:40:43;7.80;;;6.47;;
11960;SDS011;6040;49.358;11.140;2023-08-30T09:43:12;7.43;;;6.73;;
11960;SDS011;6040;49.358;11.140;2023-08-30T09:45:39;7.27;;;6.57;;
11960;SDS011;6040;49.358;11.140;2023-08-30T09:48:07;7.73;;;5.97;;
11960;SDS011;6040;49.358;11.140;2023-08-30T09:50:34;6.33;;;5.80;;
11960;SDS011;6040;49.358;11.140;2023-08-30T09:53:03;10.73;;;5.73;;
11960;SDS011;6040;49.358;11.140;2023-08-30T09:55:34;6.87;;;6.17;;
11960;SDS011;6040;49.358;11.140;2023-08-30T09:58:01;7.77;;;6.60;;
11960;SDS011;6040;49.358;11.140;2023-08-30T10:00:30;7.83;;;6.40;;
11960;SDS011;6040;49.358;11.140;2023-08-30T10:02:58;8.00;;;7.30;;
11960;SDS011;6040;49.358;11.140;2023-08-30T10:05:26;8.93;;;7.40;;
11960;SDS011;6040;49.358;11.140;2023-08-30T10:07:53;8.40;;;6.97;;
11960;SDS011;6040;49.358;11.140;2023-08-30T10:10:21;7.37;;;6.27;;
11960;SDS011;6040;49.358;11.140;2023-08-30T10:12:49;9.20;;;7.93;;
11960;SDS011;6040;49.358;11.140;2023-08-30T10:15:17;7.97;;;6.97;;
11960;SDS011;6040;49.358;11.140;2023-08-30T10:17:48;8.80;;;7.00;;
11960;SDS011;6040;49.358;11.140;2023-08-30T10:20:20;7.23;;;6.53;;
11960;SDS011;6040;49.358;11.140;2023-08-30T10:22:47;7.37;;;6.20;;
11960;SDS011;6040;49.358;11.140;2023-08-30T10:25:17;7.63;;;6.73;;
11960;SDS011;6040;49.358;11.140;2023-08-30T10:27:47;10.77;;;6.37;;
11960;SDS011;6040;49.358;11.140;2023-08-30T10:30:16;11.27;;;6.20;;
11960;SDS011;6040;49.358;11.140;2023-08-30T10:32:45;8.80;;;7.40;;
11960;SDS011;6040;49.358;11.140;2023-08-30T10:35:14;7.23;;;6.53;;
11960;SDS011;6040;49.358;11.140;2023-08-30T10:37:41;6.80;;;6.10;;
11960;SDS011;6040;49.358;11.140;2023-08-30T10:40:08;8.97;;;7.37;;
11960;SDS011;6040;49.358;11.140;2023-08-30T10:42:36;8.63;;;7.10;;
11960;SDS011;6040;49.358;11.140;2023-08-30T10:45:04;7.80;;;7.00;;
11960;SDS011;6040;49.358;11.140;2023-08-30T10:47:32;9.83;;;7.83;;
11960;SDS011;6040;49.358;11.140;2023-08-30T10:50:04;8.80;;;7.90;;
11960;SDS011;6040;49.358;11.140;2023-08-30T10:52:33;7.77;;;6.90;;
11960;SDS011;6040;49.358;11.140;2023-08-30T10:55:04;6.77;;;6.07;;
11960;SDS011;6040;49.358;11.140;2023-08-30T10:57:32;7.93;;;7.13;;
11960;SDS011;6040;49.358;11.140;2023-08-30T11:00:06;6.93;;;6.23;;
11960;SDS011;6040;49.358;11.140;2023-08-30T11:02:34;8.63;;;5.80;;
11960;SDS011;6040;49.358;11.140;2023-08-30T11:05:02;8.70;;;6.30;;
11960;SDS011;6040;49.358;11.140;2023-08-30T11:07:31;7.57;;;6.77;;
11960;SDS011;6040;49.358;11.140;2023-08-30T11:10:00;6.30;;;5.70;;
11960;SDS011;6040;49.358;11.140;2023-08-30T11:12:28;6.70;;;6.10;;
11960;SDS011;6040;49.358;11.140;2023-08-30T11:14:56;5.87;;;5.37;;
11960;SDS011;6040;49.358;11.140;2023-08-30T11:17:23;7.73;;;5.50;;
11960;SDS011;6040;49.358;11.140;2023-08-30T11:19:50;6.07;;;5.13;;
11960;SDS011;6040;49.358;11.140;2023-08-30T11:22:17;5.97;;;5.23;;
11960;SDS011;6040;49.358;11.140;2023-08-30T11:24:47;5.70;;;5.17;;
11960;SDS011;6040;49.358;11.140;2023-08-30T11:27:16;6.17;;;5.57;;
11960;SDS011;6040;49.358;11.140;2023-08-30T11:29:43;6.10;;;4.57;;
11960;SDS011;6040;49.358;11.140;2023-08-30T11:32:10;6.50;;;4.60;;
11960;SDS011;6040;49.358;11.140;2023-08-30T11:34:37;7.33;;;4.20;;
11960;SDS011;6040;49.358;11.140;2023-08-30T11:37:03;6.20;;;4.87;;
11960;SDS011;6040;49.358;11.140;2023-08-30T11:39:30;5.50;;;4.77;;
11960;SDS011;6040;49.358;11.140;2023-08-30T11:41:59;5.90;;;5.30;;
11960;SDS011;6040;49.358;11.140;2023-08-30T11:44:30;5.60;;;5.10;;
11960;SDS011;6040;49.358;11.140;2023-08-30T11:46:58;5.90;;;5.40;;
11960;SDS011;6040;49.358;11.140;2023-08-30T11:49:25;5.60;;;5.00;;
11960;SDS011;6040;49.358;11.140;2023-08-30T11:51:52;5.30;;;4.80;;
11960;SDS011;6040;49.358;11.140;2023-08-30T11:54:21;5.30;;;4.80;;
11960;SDS011;6040;49.358;11.140;2023-08-30T11:56:48;4.77;;;4.37;;
11960;SDS011;6040;49.358;11.140;2023-08-30T11:59:20;4.70;;;4.30;;
11960;SDS011;6040;49.358;11.140;2023-08-30T12:01:47;4.43;;;4.03;;
11960;SDS011;6040;49.358;11.140;2023-08-30T12:04:15;5.85;;;4.28;;
11960;SDS011;6040;49.358;11.140;2023-08-30T12:06:43;4.30;;;3.90;;
11960;SDS011;6040;49.358;11.140;2023-08-30T12:09:16;4.07;;;3.67;;
11960;SDS011;6040;49.358;11.140;2023-08-30T12:11:46;3.80;;;3.47;;
11960;SDS011;6040;49.358;11.140;2023-08-30T12:14:13;7.27;;;3.60;;
11960;SDS011;6040;49.358;11.140;2023-08-30T12:16:41;4.77;;;3.60;;
11960;SDS011;6040;49.358;11.140;2023-08-30T12:19:08;3.60;;;3.30;;
11960;SDS011;6040;49.358;11.140;2023-08-30T12:21:39;4.10;;;3.43;;
11960;SDS011;6040;49.358;11.140;2023-08-30T12:24:07;4.27;;;3.30;;
11960;SDS011;6040;49.358;11.140;2023-08-30T12:26:34;3.50;;;3.20;;
11960;SDS011;6040;49.358;11.140;2023-08-30T12:29:03;3.67;;;3.30;;
11960;SDS011;6040;49.358;11.140;2023-08-30T12:31:30;3.40;;;3.10;;
11960;SDS011;6040;49.358;11.140;2023-08-30T12:33:58;6.80;;;4.80;;
11960;SDS011;6040;49.358;11.140;2023-08-30T12:36:25;8.03;;;5.20;;
11960;SDS011;6040;49.358;11.140;2023-08-30T12:38:52;6.00;;;4.33;;
11960;SDS011;6040;49.358;11.140;2023-08-30T12:41:19;8.87;;;4.50;;
11960;SDS011;6040;49.358;11.140;2023-08-30T12:43:48;5.10;;;4.53;;
11960;SDS011;6040;49.358;11.140;2023-08-30T12:46:15;7.63;;;5.20;;
11960;SDS011;6040;49.358;11.140;2023-08-30T12:48:42;5.47;;;4.90;;
11960;SDS011;6040;49.358;11.140;2023-08-30T12:51:10;7.20;;;4.83;;
11960;SDS011;6040;49.358;11.140;2023-08-30T12:53:38;7.53;;;4.73;;
11960;SDS011;6040;49.358;11.140;2023-08-30T12:56:05;9.27;;;4.70;;
11960;SDS011;6040;49.358;11.140;2023-08-30T12:58:32;5.07;;;4.57;;
11960;SDS011;6040;49.358;11.140;2023-08-30T13:00:59;4.70;;;4.30;;
11960;SDS011;6040;49.358;11.140;2023-08-30T13:03:26;7.57;;;4.67;;
11960;SDS011;6040;49.358;11.140;2023-08-30T13:05:52;8.00;;;4.50;;
11960;SDS011;6040;49.358;11.140;2023-08-30T13:08:20;4.90;;;4.47;;
11960;SDS011;6040;49.358;11.140;2023-08-30T13:10:47;5.07;;;4.57;;
11960;SDS011;6040;49.358;11.140;2023-08-30T13:13:14;5.33;;;4.33;;
11960;SDS011;6040;49.358;11.140;2023-08-30T13:15:41;4.70;;;4.30;;
11960;SDS011;6040;49.358;11.140;2023-08-30T13:18:08;5.40;;;4.90;;
11960;SDS011;6040;49.358;11.140;2023-08-30T13:20:37;6.00;;;4.10;;
11960;SDS011;6040;49.358;11.140;2023-08-30T13:23:04;5.73;;;4.60;;
11960;SDS011;6040;49.358;11.140;2023-08-30T13:25:32;6.27;;;4.50;;
11960;SDS011;6040;49.358;11.140;2023-08-30T13:27:59;4.90;;;4.50;;
11960;SDS011;6040;49.358;11.140;2023-08-30T13:30:26;5.50;;;4.40;;
11960;SDS011;6040;49.358;11.140;2023-08-30T13:32:53;6.17;;;4.30;;
11960;SDS011;6040;49.358;11.140;2023-08-30T13:35:19;4.63;;;4.23;;
11960;SDS011;6040;49.358;11.140;2023-08-30T13:37:46;4.10;;;3.70;;
11960;SDS011;6040;49.358;11.140;2023-08-30T13:40:13;4.80;;;3.80;;
11960;SDS011;6040;49.358;11.140;2023-08-30T13:42:41;5.83;;;3.70;;
11960;SDS011;6040;49.358;11.140;2023-08-30T13:45:08;3.87;;;3.53;;
11960;SDS011;6040;49.358;11.140;2023-08-30T13:47:36;3.90;;;3.60;;
11960;SDS011;6040;49.358;11.140;2023-08-30T13:50:03;4.30;;;3.87;;
11960;SDS011;6040;49.358;11.140;2023-08-30T13:52:31;4.30;;;3.90;;
11960;SDS011;6040;49.358;11.140;2023-08-30T13:54:58;4.23;;;3.63;;
11960;SDS011;6040;49.358;11.140;2023-08-30T13:57:25;4.00;;;3.70;;
11960;SDS011;6040;49.358;11.140;2023-08-30T13:59:53;4.27;;;3.87;;
11960;SDS011;6040;49.358;11.140;2023-08-30T14:02:20;4.33;;;3.93;;
11960;SDS011;6040;49.358;11.140;2023-08-30T14:04:47;4.40;;;4.00;;
11960;SDS011;6040;49.358;11.140;2023-08-30T14:07:14;4.10;;;3.70;;
11960;SDS011;6040;49.358;11.140;2023-08-30T14:09:41;3.90;;;3.23;;
11960;SDS011;6040;49.358;11.140;2023-08-30T14:12:08;4.43;;;3.50;;
11960;SDS011;6040;49.358;11.140;2023-08-30T14:14:35;4.80;;;3.63;;
11960;SDS011;6040;49.358;11.140;2023-08-30T14:17:03;4.03;;;3.43;;
11960;SDS011;6040;49.358;11.140;2023-08-30T14:19:30;3.47;;;3.07;;
11960;SDS011;6040;49.358;11.140;2023-08-30T14:21:59;3.47;;;3.17;;
11960;SDS011;6040;49.358;11.140;2023-08-30T14:24:28;4.23;;;3.40;;
11960;SDS011;6040;49.358;11.140;2023-08-30T14:26:54;3.70;;;3.40;;
11960;SDS011;6040;49.358;11.140;2023-08-30T14:29:21;4.40;;;3.30;;
11960;SDS011;6040;49.358;11.140;2023-08-30T14:31:48;3.40;;;3.10;;
11960;SDS011;6040;49.358;11.140;2023-08-30T14:34:16;3.80;;;3.50;;
11960;SDS011;6040;49.358;11.140;2023-08-30T14:36:43;3.93;;;3.57;;
11960;SDS011;6040;49.358;11.140;2023-08-30T14:39:11;3.60;;;3.30;;
11960;SDS011;6040;49.358;11.140;2023-08-30T14:41:38;3.60;;;3.30;;
11960;SDS011;6040;49.358;11.140;2023-08-30T14:44:05;4.23;;;3.83;;
11960;SDS011;6040;49.358;11.140;2023-08-30T14:46:32;3.30;;;3.10;;